sensor_id;sensor_type;location;lat;lon;timestamp;pressure;altitude;pressure_sealevel;temperature
58102;BMP280;52034;51.926;6.320;2023-06-22T00:00:43;101881.84;;;21.50
58102;BMP280;52034;51.926;6.320;2023-06-22T00:01:44;101889.69;;;21.43
58102;BMP280;52034;51.926;6.320;2023-06-22T00:02:45;101886.09;;;21.45
58102;BMP280;52034;51.926;6.320;2023-06-22T00:03:45;101882.53;;;21.44
58102;BMP280;52034;51.926;6.320;2023-06-22T00:04:45;101881.06;;;21.41
58102;BMP280;52034;51.926;6.320;2023-06-22T00:05:49;101877.50;;;21.39
58102;BMP280;52034;51.926;6.320;2023-06-22T00:06:49;101883.22;;;21.39
58102;BMP280;52034;51.926;6.320;2023-06-22T00:07:50;101878.88;;;21.36
58102;BMP280;52034;51.926;6.320;2023-06-22T00:08:50;101870.34;;;21.34
58102;BMP280;52034;51.926;6.320;2023-06-22T00:09:50;101883.88;;;21.31
58102;BMP280;52034;51.926;6.320;2023-06-22T00:10:51;101873.88;;;21.32
58102;BMP280;52034;51.926;6.320;2023-06-22T00:11:51;101883.16;;;21.31
58102;BMP280;52034;51.926;6.320;2023-06-22T00:12:51;101878.88;;;21.32
58102;BMP280;52034;51.926;6.320;2023-06-22T00:13:52;101884.56;;;21.30
58102;BMP280;52034;51.926;6.320;2023-06-22T00:14:52;101876.03;;;21.32
58102;BMP280;52034;51.926;6.320;2023-06-22T00:15:52;101874.56;;;21.27
58102;BMP280;52034;51.926;6.320;2023-06-22T00:16:53;101871.00;;;21.30
58102;BMP280;52034;51.926;6.320;2023-06-22T00:17:57;101876.66;;;21.24
58102;BMP280;52034;51.926;6.320;2023-06-22T00:18:58;101870.25;;;21.26
58102;BMP280;52034;51.926;6.320;2023-06-22T00:20:00;101867.97;;;21.08
58102;BMP280;52034;51.926;6.320;2023-06-22T00:21:00;101869.34;;;21.01
58102;BMP280;52034;51.926;6.320;2023-06-22T00:22:01;101873.63;;;21.00
58102;BMP280;52034;51.926;6.320;2023-06-22T00:23:05;101871.44;;;20.97
58102;BMP280;52034;51.926;6.320;2023-06-22T00:24:08;101865.69;;;20.91
58102;BMP280;52034;51.926;6.320;2023-06-22T00:25:09;101855.66;;;20.86
58102;BMP280;52034;51.926;6.320;2023-06-22T00:26:09;101859.13;;;20.78
58102;BMP280;52034;51.926;6.320;2023-06-22T00:27:10;101859.13;;;20.78
58102;BMP280;52034;51.926;6.320;2023-06-22T00:28:11;101860.56;;;20.79
58102;BMP280;52034;51.926;6.320;2023-06-22T00:29:12;101856.25;;;20.76
58102;BMP280;52034;51.926;6.320;2023-06-22T00:30:12;101851.22;;;20.73
58102;BMP280;52034;51.926;6.320;2023-06-22T00:31:13;101854.84;;;20.77
58102;BMP280;52034;51.926;6.320;2023-06-22T00:32:13;101856.31;;;20.82
58102;BMP280;52034;51.926;6.320;2023-06-22T00:33:14;101859.84;;;20.81
58102;BMP280;52034;51.926;6.320;2023-06-22T00:34:16;101857.03;;;20.85
58102;BMP280;52034;51.926;6.320;2023-06-22T00:35:16;101863.50;;;20.89
58102;BMP280;52034;51.926;6.320;2023-06-22T00:36:16;101861.47;;;20.96
58102;BMP280;52034;51.926;6.320;2023-06-22T00:37:19;101862.19;;;20.98
58102;BMP280;52034;51.926;6.320;2023-06-22T00:38:19;101865.03;;;20.98
58102;BMP280;52034;51.926;6.320;2023-06-22T00:39:20;101861.50;;;21.00
58102;BMP280;52034;51.926;6.320;2023-06-22T00:40:20;101858.63;;;21.00
58102;BMP280;52034;51.926;6.320;2023-06-22T00:41:21;101870.09;;;21.04
58102;BMP280;52034;51.926;6.320;2023-06-22T00:42:22;101866.53;;;21.03
58102;BMP280;52034;51.926;6.320;2023-06-22T00:43:23;101866.50;;;21.05
58102;BMP280;52034;51.926;6.320;2023-06-22T00:44:23;101860.09;;;21.03
58102;BMP280;52034;51.926;6.320;2023-06-22T00:45:26;101875.81;;;21.06
58102;BMP280;52034;51.926;6.320;2023-06-22T00:46:26;101869.38;;;21.05
58102;BMP280;52034;51.926;6.320;2023-06-22T00:47:27;101874.38;;;21.07
58102;BMP280;52034;51.926;6.320;2023-06-22T00:48:27;101870.13;;;21.10
58102;BMP280;52034;51.926;6.320;2023-06-22T00:49:28;101881.56;;;21.14
58102;BMP280;52034;51.926;6.320;2023-06-22T00:50:30;101874.47;;;21.15
58102;BMP280;52034;51.926;6.320;2023-06-22T00:51:33;101872.31;;;21.15
58102;BMP280;52034;51.926;6.320;2023-06-22T00:52:33;101873.06;;;21.16
58102;BMP280;52034;51.926;6.320;2023-06-22T00:53:35;101873.06;;;21.16
58102;BMP280;52034;51.926;6.320;2023-06-22T00:54:37;101865.88;;;21.17
58102;BMP280;52034;51.926;6.320;2023-06-22T00:55:41;101868.75;;;21.17
58102;BMP280;52034;51.926;6.320;2023-06-22T00:56:46;101860.16;;;21.17
58102;BMP280;52034;51.926;6.320;2023-06-22T00:57:47;101863.09;;;21.21
58102;BMP280;52034;51.926;6.320;2023-06-22T00:58:50;101857.34;;;21.19
58102;BMP280;52034;51.926;6.320;2023-06-22T00:59:53;101867.34;;;21.20
58102;BMP280;52034;51.926;6.320;2023-06-22T01:00:54;101867.28;;;21.14
58102;BMP280;52034;51.926;6.320;2023-06-22T01:01:55;101870.16;;;21.14
58102;BMP280;52034;51.926;6.320;2023-06-22T01:02:55;101860.13;;;21.11
58102;BMP280;52034;51.926;6.320;2023-06-22T01:03:55;101860.09;;;21.05
58102;BMP280;52034;51.926;6.320;2023-06-22T01:04:57;101862.25;;;21.06
58102;BMP280;52034;51.926;6.320;2023-06-22T01:06:06;101857.25;;;21.07
58102;BMP280;52034;51.926;6.320;2023-06-22T01:07:31;101860.13;;;21.11
58102;BMP280;52034;51.926;6.320;2023-06-22T01:09:00;101845.13;;;21.12
58102;BMP280;52034;51.926;6.320;2023-06-22T01:10:04;101854.47;;;21.15
58102;BMP280;52034;51.926;6.320;2023-06-22T01:11:26;101853.06;;;21.16
58102;BMP280;52034;51.926;6.320;2023-06-22T01:12:31;101850.13;;;21.10
58102;BMP280;52034;51.926;6.320;2023-06-22T01:15:08;101842.97;;;21.09
58102;BMP280;52034;51.926;6.320;2023-06-22T01:16:31;101850.16;;;21.08
58102;BMP280;52034;51.926;6.320;2023-06-22T01:17:32;101839.41;;;21.06
58102;BMP280;52034;51.926;6.320;2023-06-22T01:18:35;101848.66;;;21.05
58102;BMP280;52034;51.926;6.320;2023-06-22T01:19:44;101845.09;;;21.04
58102;BMP280;52034;51.926;6.320;2023-06-22T01:20:47;101850.09;;;21.04
58102;BMP280;52034;51.926;6.320;2023-06-22T01:21:49;101847.25;;;21.04
58102;BMP280;52034;51.926;6.320;2023-06-22T01:23:02;101849.38;;;21.05
58102;BMP280;52034;51.926;6.320;2023-06-22T01:26:12;101850.09;;;21.04
58102;BMP280;52034;51.926;6.320;2023-06-22T01:27:40;101847.94;;;21.02
58102;BMP280;52034;51.926;6.320;2023-06-22T01:28:54;101847.16;;;20.98
58102;BMP280;52034;51.926;6.320;2023-06-22T01:29:57;101845.78;;;20.99
58102;BMP280;52034;51.926;6.320;2023-06-22T01:31:00;101850.06;;;21.00
58102;BMP280;52034;51.926;6.320;2023-06-22T01:32:06;101845.03;;;20.96
58102;BMP280;52034;51.926;6.320;2023-06-22T01:33:13;101840.66;;;20.89
58102;BMP280;52034;51.926;6.320;2023-06-22T01:34:14;101847.78;;;20.84
58102;BMP280;52034;51.926;6.320;2023-06-22T01:35:15;101848.50;;;20.83
58102;BMP280;52034;51.926;6.320;2023-06-22T01:36:17;101839.91;;;20.83
58102;BMP280;52034;51.926;6.320;2023-06-22T01:37:20;101841.31;;;20.80
58102;BMP280;52034;51.926;6.320;2023-06-22T01:38:20;101842.72;;;20.81
58102;BMP280;52034;51.926;6.320;2023-06-22T01:39:23;101830.56;;;20.76
58102;BMP280;52034;51.926;6.320;2023-06-22T01:40:27;101832.00;;;20.75
58102;BMP280;52034;51.926;6.320;2023-06-22T01:41:29;101828.41;;;20.73
58102;BMP280;52034;51.926;6.320;2023-06-22T01:42:31;101831.94;;;20.67
58102;BMP280;52034;51.926;6.320;2023-06-22T01:43:32;101834.75;;;20.65
58102;BMP280;52034;51.926;6.320;2023-06-22T01:44:34;101831.13;;;20.61
58102;BMP280;52034;51.926;6.320;2023-06-22T01:45:34;101827.53;;;20.60
58102;BMP280;52034;51.926;6.320;2023-06-22T01:46:35;101834.00;;;20.59
58102;BMP280;52034;51.926;6.320;2023-06-22T01:47:36;101828.22;;;20.55
58102;BMP280;52034;51.926;6.320;2023-06-22T01:48:38;101835.38;;;20.56
58102;BMP280;52034;51.926;6.320;2023-06-22T01:49:40;101835.38;;;20.58
58102;BMP280;52034;51.926;6.320;2023-06-22T01:50:41;101835.38;;;20.58
58102;BMP280;52034;51.926;6.320;2023-06-22T01:51:42;101841.13;;;20.62
58102;BMP280;52034;51.926;6.320;2023-06-22T01:52:42;101831.88;;;20.63
58102;BMP280;52034;51.926;6.320;2023-06-22T01:53:42;101836.88;;;20.65
58102;BMP280;52034;51.926;6.320;2023-06-22T01:54:43;101838.34;;;20.66
58102;BMP280;52034;51.926;6.320;2023-06-22T01:55:43;101838.31;;;20.68
58102;BMP280;52034;51.926;6.320;2023-06-22T01:56:43;101845.44;;;20.65
58102;BMP280;52034;51.926;6.320;2023-06-22T01:57:44;101841.19;;;20.68
58102;BMP280;52034;51.926;6.320;2023-06-22T01:59:06;101843.34;;;20.67
58102;BMP280;52034;51.926;6.320;2023-06-22T02:00:12;101846.88;;;20.68
58102;BMP280;52034;51.926;6.320;2023-06-22T02:01:24;101845.41;;;20.61
58102;BMP280;52034;51.926;6.320;2023-06-22T02:02:33;101838.94;;;20.56
58102;BMP280;52034;51.926;6.320;2023-06-22T02:03:47;101834.63;;;20.53
58102;BMP280;52034;51.926;6.320;2023-06-22T02:05:03;101843.19;;;20.51
58102;BMP280;52034;51.926;6.320;2023-06-22T02:06:11;101832.47;;;20.50
58102;BMP280;52034;51.926;6.320;2023-06-22T02:07:15;101836.66;;;20.45
58102;BMP280;52034;51.926;6.320;2023-06-22T02:08:22;101827.34;;;20.40
58102;BMP280;52034;51.926;6.320;2023-06-22T02:09:28;101833.81;;;20.45
58102;BMP280;52034;51.926;6.320;2023-06-22T02:10:30;101833.09;;;20.42
58102;BMP280;52034;51.926;6.320;2023-06-22T02:11:32;101826.63;;;20.40
58102;BMP280;52034;51.926;6.320;2023-06-22T02:12:33;101830.91;;;20.39
58102;BMP280;52034;51.926;6.320;2023-06-22T02:13:36;101828.75;;;20.37
58102;BMP280;52034;51.926;6.320;2023-06-22T02:14:37;101831.56;;;20.35
58102;BMP280;52034;51.926;6.320;2023-06-22T02:15:39;101831.56;;;20.35
58102;BMP280;52034;51.926;6.320;2023-06-22T02:16:40;101830.09;;;20.28
58102;BMP280;52034;51.926;6.320;2023-06-22T02:17:42;101828.63;;;20.25
58102;BMP280;52034;51.926;6.320;2023-06-22T02:18:49;101834.34;;;20.25
58102;BMP280;52034;51.926;6.320;2023-06-22T02:19:53;101827.22;;;20.26
58102;BMP280;52034;51.926;6.320;2023-06-22T02:20:54;101831.44;;;20.21
58102;BMP280;52034;51.926;6.320;2023-06-22T02:21:54;101830.75;;;20.25
58102;BMP280;52034;51.926;6.320;2023-06-22T02:22:54;101827.84;;;20.23
58102;BMP280;52034;51.926;6.320;2023-06-22T02:23:54;101827.81;;;20.19
58102;BMP280;52034;51.926;6.320;2023-06-22T02:24:56;101824.19;;;20.14
58102;BMP280;52034;51.926;6.320;2023-06-22T02:25:56;101824.13;;;20.10
58102;BMP280;52034;51.926;6.320;2023-06-22T02:26:59;101824.84;;;20.09
58102;BMP280;52034;51.926;6.320;2023-06-22T02:28:00;101831.19;;;20.03
58102;BMP280;52034;51.926;6.320;2023-06-22T02:29:00;101830.41;;;19.99
58102;BMP280;52034;51.926;6.320;2023-06-22T02:30:00;101826.09;;;19.94
58102;BMP280;52034;51.926;6.320;2023-06-22T02:31:01;101823.91;;;19.91
58102;BMP280;52034;51.926;6.320;2023-06-22T02:32:01;101822.47;;;19.90
58102;BMP280;52034;51.926;6.320;2023-06-22T02:33:02;101823.81;;;19.83
58102;BMP280;52034;51.926;6.320;2023-06-22T02:34:02;101816.69;;;19.86
58102;BMP280;52034;51.926;6.320;2023-06-22T02:35:03;101817.47;;;19.88
58102;BMP280;52034;51.926;6.320;2023-06-22T02:36:06;101820.31;;;19.88
58102;BMP280;52034;51.926;6.320;2023-06-22T02:37:09;101821.00;;;19.87
58102;BMP280;52034;51.926;6.320;2023-06-22T02:38:14;101823.22;;;19.92
58102;BMP280;52034;51.926;6.320;2023-06-22T02:39:14;101813.22;;;19.91
58102;BMP280;52034;51.926;6.320;2023-06-22T02:40:15;101821.16;;;19.97
58102;BMP280;52034;51.926;6.320;2023-06-22T02:41:15;101814.72;;;19.98
58102;BMP280;52034;51.926;6.320;2023-06-22T02:42:18;101824.00;;;19.98
58102;BMP280;52034;51.926;6.320;2023-06-22T02:43:20;101819.03;;;19.97
58102;BMP280;52034;51.926;6.320;2023-06-22T02:44:21;101810.50;;;20.03
58102;BMP280;52034;51.926;6.320;2023-06-22T02:45:22;101819.78;;;20.01
58102;BMP280;52034;51.926;6.320;2023-06-22T02:46:22;101811.91;;;20.02
58102;BMP280;52034;51.926;6.320;2023-06-22T02:47:23;101817.59;;;19.98
58102;BMP280;52034;51.926;6.320;2023-06-22T02:48:24;101809.59;;;19.87
58102;BMP280;52034;51.926;6.320;2023-06-22T02:49:25;101823.13;;;19.86
58102;BMP280;52034;51.926;6.320;2023-06-22T02:50:25;101808.84;;;19.82
58102;BMP280;52034;51.926;6.320;2023-06-22T02:51:26;101814.56;;;19.84
58102;BMP280;52034;51.926;6.320;2023-06-22T02:52:27;101819.50;;;19.80
58102;BMP280;52034;51.926;6.320;2023-06-22T02:53:27;101813.72;;;19.76
58102;BMP280;52034;51.926;6.320;2023-06-22T02:54:27;101811.56;;;19.74
58102;BMP280;52034;51.926;6.320;2023-06-22T02:55:28;101813.69;;;19.72
58102;BMP280;52034;51.926;6.320;2023-06-22T02:56:32;101808.03;;;19.76
58102;BMP280;52034;51.926;6.320;2023-06-22T02:57:34;101822.31;;;19.78
58102;BMP280;52034;51.926;6.320;2023-06-22T02:58:35;101809.50;;;19.77
58102;BMP280;52034;51.926;6.320;2023-06-22T02:59:40;101813.75;;;19.78
58102;BMP280;52034;51.926;6.320;2023-06-22T03:00:43;101813.78;;;19.82
58102;BMP280;52034;51.926;6.320;2023-06-22T03:01:43;101817.38;;;19.82
58102;BMP280;52034;51.926;6.320;2023-06-22T03:02:55;101810.25;;;19.81
58102;BMP280;52034;51.926;6.320;2023-06-22T03:03:56;101811.69;;;19.82
58102;BMP280;52034;51.926;6.320;2023-06-22T03:04:56;101809.53;;;19.81
58102;BMP280;52034;51.926;6.320;2023-06-22T03:05:57;101816.59;;;19.78
58102;BMP280;52034;51.926;6.320;2023-06-22T03:06:58;101808.78;;;19.78
58102;BMP280;52034;51.926;6.320;2023-06-22T03:08:01;101804.44;;;19.73
58102;BMP280;52034;51.926;6.320;2023-06-22T03:09:06;101812.28;;;19.75
58102;BMP280;52034;51.926;6.320;2023-06-22T03:10:09;101802.97;;;19.68
58102;BMP280;52034;51.926;6.320;2023-06-22T03:11:10;101807.16;;;19.63
58102;BMP280;52034;51.926;6.320;2023-06-22T03:12:10;101796.44;;;19.60
58102;BMP280;52034;51.926;6.320;2023-06-22T03:13:22;101812.03;;;19.55
58102;BMP280;52034;51.926;6.320;2023-06-22T03:14:22;101807.06;;;19.55
58102;BMP280;52034;51.926;6.320;2023-06-22T03:15:24;101805.59;;;19.54
58102;BMP280;52034;51.926;6.320;2023-06-22T03:16:25;101805.66;;;19.58
58102;BMP280;52034;51.926;6.320;2023-06-22T03:17:26;101802.03;;;19.56
58102;BMP280;52034;51.926;6.320;2023-06-22T03:18:27;101806.34;;;19.57
58102;BMP280;52034;51.926;6.320;2023-06-22T03:19:27;101801.41;;;19.59
58102;BMP280;52034;51.926;6.320;2023-06-22T03:20:29;101797.84;;;19.61
58102;BMP280;52034;51.926;6.320;2023-06-22T03:21:33;101807.16;;;19.63
58102;BMP280;52034;51.926;6.320;2023-06-22T03:22:35;101804.31;;;19.63
58102;BMP280;52034;51.926;6.320;2023-06-22T03:23:36;101807.94;;;19.68
58102;BMP280;52034;51.926;6.320;2023-06-22T03:24:36;101797.91;;;19.65
58102;BMP280;52034;51.926;6.320;2023-06-22T03:25:39;101797.13;;;19.58
58102;BMP280;52034;51.926;6.320;2023-06-22T03:26:39;101795.66;;;19.57
58102;BMP280;52034;51.926;6.320;2023-06-22T03:27:41;101796.94;;;19.48
58102;BMP280;52034;51.926;6.320;2023-06-22T03:28:42;101789.81;;;19.47
58102;BMP280;52034;51.926;6.320;2023-06-22T03:29:42;101791.94;;;19.45
58102;BMP280;52034;51.926;6.320;2023-06-22T03:30:42;101789.06;;;19.43
58102;BMP280;52034;51.926;6.320;2023-06-22T03:31:43;101793.31;;;19.42
58102;BMP280;52034;51.926;6.320;2023-06-22T03:32:43;101798.34;;;19.47
58102;BMP280;52034;51.926;6.320;2023-06-22T03:33:44;101796.16;;;19.42
58102;BMP280;52034;51.926;6.320;2023-06-22T03:34:44;101796.19;;;19.44
58102;BMP280;52034;51.926;6.320;2023-06-22T03:35:48;101787.66;;;19.44
58102;BMP280;52034;51.926;6.320;2023-06-22T03:36:49;101791.19;;;19.42
58102;BMP280;52034;51.926;6.320;2023-06-22T03:37:51;101796.94;;;19.46
58102;BMP280;52034;51.926;6.320;2023-06-22T03:38:51;101798.41;;;19.49
58102;BMP280;52034;51.926;6.320;2023-06-22T03:39:52;101790.53;;;19.48
58102;BMP280;52034;51.926;6.320;2023-06-22T03:40:53;101791.25;;;19.48
58102;BMP280;52034;51.926;6.320;2023-06-22T03:41:54;101792.66;;;19.47
58102;BMP280;52034;51.926;6.320;2023-06-22T03:42:55;101787.75;;;19.52
58102;BMP280;52034;51.926;6.320;2023-06-22T03:43:55;101790.63;;;19.56
58102;BMP280;52034;51.926;6.320;2023-06-22T03:44:56;101787.06;;;19.53
58102;BMP280;52034;51.926;6.320;2023-06-22T03:45:56;101787.78;;;19.54
58102;BMP280;52034;51.926;6.320;2023-06-22T03:46:56;101794.97;;;19.57
58102;BMP280;52034;51.926;6.320;2023-06-22T03:47:57;101796.50;;;19.64
58102;BMP280;52034;51.926;6.320;2023-06-22T03:48:57;101790.06;;;19.63
58102;BMP280;52034;51.926;6.320;2023-06-22T03:49:58;101782.09;;;19.56
58102;BMP280;52034;51.926;6.320;2023-06-22T03:51:01;101789.31;;;19.61
58102;BMP280;52034;51.926;6.320;2023-06-22T03:52:03;101789.97;;;19.55
58102;BMP280;52034;51.926;6.320;2023-06-22T03:53:04;101785.69;;;19.56
58102;BMP280;52034;51.926;6.320;2023-06-22T03:54:04;101790.00;;;19.59
58102;BMP280;52034;51.926;6.320;2023-06-22T03:55:05;101777.19;;;19.60
58102;BMP280;52034;51.926;6.320;2023-06-22T03:56:06;101775.84;;;19.65
58102;BMP280;52034;51.926;6.320;2023-06-22T03:57:06;101785.88;;;19.70
58102;BMP280;52034;51.926;6.320;2023-06-22T03:58:06;101782.31;;;19.70
58102;BMP280;52034;51.926;6.320;2023-06-22T03:59:07;101777.31;;;19.70
58102;BMP280;52034;51.926;6.320;2023-06-22T04:00:07;101782.88;;;19.60
58102;BMP280;52034;51.926;6.320;2023-06-22T04:01:12;101781.47;;;19.61
58102;BMP280;52034;51.926;6.320;2023-06-22T04:02:12;101779.34;;;19.62
58102;BMP280;52034;51.926;6.320;2023-06-22T04:03:13;101777.88;;;19.57
58102;BMP280;52034;51.926;6.320;2023-06-22T04:04:14;101780.03;;;19.58
58102;BMP280;52034;51.926;6.320;2023-06-22T04:05:14;101782.81;;;19.56
58102;BMP280;52034;51.926;6.320;2023-06-22T04:06:15;101782.94;;;19.62
58102;BMP280;52034;51.926;6.320;2023-06-22T04:07:15;101778.63;;;19.61
58102;BMP280;52034;51.926;6.320;2023-06-22T04:08:16;101780.03;;;19.60
58102;BMP280;52034;51.926;6.320;2023-06-22T04:09:16;101785.78;;;19.64
58102;BMP280;52034;51.926;6.320;2023-06-22T04:10:16;101777.19;;;19.60
58102;BMP280;52034;51.926;6.320;2023-06-22T04:11:17;101785.03;;;19.60
58102;BMP280;52034;51.926;6.320;2023-06-22T04:12:18;101781.41;;;19.57
58102;BMP280;52034;51.926;6.320;2023-06-22T04:13:19;101784.25;;;19.57
58102;BMP280;52034;51.926;6.320;2023-06-22T04:14:19;101779.91;;;19.50
58102;BMP280;52034;51.926;6.320;2023-06-22T04:15:20;101781.38;;;19.53
58102;BMP280;52034;51.926;6.320;2023-06-22T04:16:20;101781.41;;;19.55
58102;BMP280;52034;51.926;6.320;2023-06-22T04:17:20;101782.81;;;19.56
58102;BMP280;52034;51.926;6.320;2023-06-22T04:18:21;101782.94;;;19.62
58102;BMP280;52034;51.926;6.320;2023-06-22T04:19:21;101784.31;;;19.61
58102;BMP280;52034;51.926;6.320;2023-06-22T04:20:22;101787.16;;;19.61
58102;BMP280;52034;51.926;6.320;2023-06-22T04:21:22;101789.34;;;19.65
58102;BMP280;52034;51.926;6.320;2023-06-22T04:22:23;101787.94;;;19.66
58102;BMP280;52034;51.926;6.320;2023-06-22T04:23:23;101778.00;;;19.67
58102;BMP280;52034;51.926;6.320;2023-06-22T04:24:23;101783.75;;;19.71
58102;BMP280;52034;51.926;6.320;2023-06-22T04:25:24;101785.88;;;19.68
58102;BMP280;52034;51.926;6.320;2023-06-22T04:26:24;101792.25;;;19.69
58102;BMP280;52034;51.926;6.320;2023-06-22T04:27:24;101783.69;;;19.67
58102;BMP280;52034;51.926;6.320;2023-06-22T04:28:25;101781.53;;;19.65
58102;BMP280;52034;51.926;6.320;2023-06-22T04:29:25;101778.69;;;19.65
58102;BMP280;52034;51.926;6.320;2023-06-22T04:30:28;101779.38;;;19.66
58102;BMP280;52034;51.926;6.320;2023-06-22T04:31:32;101771.56;;;19.64
58102;BMP280;52034;51.926;6.320;2023-06-22T04:32:36;101773.00;;;19.67
58102;BMP280;52034;51.926;6.320;2023-06-22T04:33:37;101772.91;;;19.61
58102;BMP280;52034;51.926;6.320;2023-06-22T04:34:41;101777.25;;;19.64
58102;BMP280;52034;51.926;6.320;2023-06-22T04:35:42;101780.84;;;19.67
58102;BMP280;52034;51.926;6.320;2023-06-22T04:36:44;101770.91;;;19.68
58102;BMP280;52034;51.926;6.320;2023-06-22T04:37:45;101779.44;;;19.68
58102;BMP280;52034;51.926;6.320;2023-06-22T04:38:46;101790.94;;;19.76
58102;BMP280;52034;51.926;6.320;2023-06-22T04:39:46;101770.22;;;19.71
58102;BMP280;52034;51.926;6.320;2023-06-22T04:40:46;101777.47;;;19.80
58102;BMP280;52034;51.926;6.320;2023-06-22T04:41:47;101777.53;;;19.84
58102;BMP280;52034;51.926;6.320;2023-06-22T04:42:47;101779.72;;;19.92
58102;BMP280;52034;51.926;6.320;2023-06-22T04:43:53;101777.66;;;19.96
58102;BMP280;52034;51.926;6.320;2023-06-22T04:45:00;101780.59;;;20.04
58102;BMP280;52034;51.926;6.320;2023-06-22T04:46:00;101774.97;;;20.12
58102;BMP280;52034;51.926;6.320;2023-06-22T04:47:03;101777.09;;;20.11
58102;BMP280;52034;51.926;6.320;2023-06-22T04:48:08;101776.53;;;20.21
58102;BMP280;52034;51.926;6.320;2023-06-22T04:49:09;101772.28;;;20.24
58102;BMP280;52034;51.926;6.320;2023-06-22T04:50:10;101780.88;;;20.28
58102;BMP280;52034;51.926;6.320;2023-06-22T04:51:10;101776.50;;;20.23
58102;BMP280;52034;51.926;6.320;2023-06-22T04:52:12;101772.25;;;20.22
58102;BMP280;52034;51.926;6.320;2023-06-22T04:53:13;101770.09;;;20.20
58102;BMP280;52034;51.926;6.320;2023-06-22T04:54:13;101772.25;;;20.22
58102;BMP280;52034;51.926;6.320;2023-06-22T04:55:14;101766.53;;;20.20
58102;BMP280;52034;51.926;6.320;2023-06-22T04:56:18;101764.34;;;20.16
58102;BMP280;52034;51.926;6.320;2023-06-22T04:57:18;101777.97;;;20.22
58102;BMP280;52034;51.926;6.320;2023-06-22T04:58:19;101769.41;;;20.24
58102;BMP280;52034;51.926;6.320;2023-06-22T04:59:20;101768.00;;;20.25
58102;BMP280;52034;51.926;6.320;2023-06-22T05:00:20;101770.88;;;20.29
58102;BMP280;52034;51.926;6.320;2023-06-22T05:01:23;101766.59;;;20.28
58102;BMP280;52034;51.926;6.320;2023-06-22T05:02:24;101770.16;;;20.26
58102;BMP280;52034;51.926;6.320;2023-06-22T05:03:27;101762.28;;;20.25
58102;BMP280;52034;51.926;6.320;2023-06-22T05:04:29;101758.03;;;20.28
58102;BMP280;52034;51.926;6.320;2023-06-22T05:05:31;101763.81;;;20.34
58102;BMP280;52034;51.926;6.320;2023-06-22T05:06:31;101760.94;;;20.30
58102;BMP280;52034;51.926;6.320;2023-06-22T05:07:33;101763.81;;;20.34
58102;BMP280;52034;51.926;6.320;2023-06-22T05:08:33;101767.47;;;20.42
58102;BMP280;52034;51.926;6.320;2023-06-22T05:09:33;101771.03;;;20.41
58102;BMP280;52034;51.926;6.320;2023-06-22T05:10:34;101776.06;;;20.44
58102;BMP280;52034;51.926;6.320;2023-06-22T05:11:34;101768.31;;;20.55
58102;BMP280;52034;51.926;6.320;2023-06-22T05:12:34;101779.78;;;20.59
58102;BMP280;52034;51.926;6.320;2023-06-22T05:13:35;101773.41;;;20.68
58102;BMP280;52034;51.926;6.320;2023-06-22T05:14:35;101771.34;;;20.77
58102;BMP280;52034;51.926;6.320;2023-06-22T05:15:35;101772.84;;;20.84
58102;BMP280;52034;51.926;6.320;2023-06-22T05:16:41;101781.47;;;20.94
58102;BMP280;52034;51.926;6.320;2023-06-22T05:17:42;101778.63;;;20.98
58102;BMP280;52034;51.926;6.320;2023-06-22T05:18:45;101777.28;;;21.05
58102;BMP280;52034;51.926;6.320;2023-06-22T05:19:46;101779.44;;;21.06
58102;BMP280;52034;51.926;6.320;2023-06-22T05:20:48;101788.00;;;21.08
58102;BMP280;52034;51.926;6.320;2023-06-22T05:21:48;101787.84;;;20.88
58102;BMP280;52034;51.926;6.320;2023-06-22T05:22:48;101784.97;;;20.86
58102;BMP280;52034;51.926;6.320;2023-06-22T05:23:49;101778.63;;;20.92
58102;BMP280;52034;51.926;6.320;2023-06-22T05:24:49;101779.34;;;20.94
58102;BMP280;52034;51.926;6.320;2023-06-22T05:25:51;101776.53;;;21.04
58102;BMP280;52034;51.926;6.320;2023-06-22T05:26:51;101775.88;;;21.10
58102;BMP280;52034;51.926;6.320;2023-06-22T05:27:51;101764.47;;;21.10
58102;BMP280;52034;51.926;6.320;2023-06-22T05:28:52;101775.22;;;21.21
58102;BMP280;52034;51.926;6.320;2023-06-22T05:29:53;101773.09;;;21.22
58102;BMP280;52034;51.926;6.320;2023-06-22T05:30:53;101771.69;;;21.21
58102;BMP280;52034;51.926;6.320;2023-06-22T05:31:54;101777.38;;;21.19
58102;BMP280;52034;51.926;6.320;2023-06-22T05:32:54;101758.84;;;21.26
58102;BMP280;52034;51.926;6.320;2023-06-22T05:33:55;101772.41;;;21.25
58102;BMP280;52034;51.926;6.320;2023-06-22T05:34:55;101776.72;;;21.30
58102;BMP280;52034;51.926;6.320;2023-06-22T05:35:56;101776.69;;;21.24
58102;BMP280;52034;51.926;6.320;2023-06-22T05:36:56;101771.72;;;21.33
58102;BMP280;52034;51.926;6.320;2023-06-22T05:37:58;101781.75;;;21.34
58102;BMP280;52034;51.926;6.320;2023-06-22T05:38:59;101773.19;;;21.36
58102;BMP280;52034;51.926;6.320;2023-06-22T05:39:59;101774.66;;;21.43
58102;BMP280;52034;51.926;6.320;2023-06-22T05:41:00;101771.78;;;21.41
58102;BMP280;52034;51.926;6.320;2023-06-22T05:42:00;101767.53;;;21.50
58102;BMP280;52034;51.926;6.320;2023-06-22T05:43:00;101764.69;;;21.50
58102;BMP280;52034;51.926;6.320;2023-06-22T05:44:01;101769.00;;;21.55
58102;BMP280;52034;51.926;6.320;2023-06-22T05:45:02;101773.28;;;21.60
58102;BMP280;52034;51.926;6.320;2023-06-22T05:46:04;101771.91;;;21.61
58102;BMP280;52034;51.926;6.320;2023-06-22T05:47:04;101766.88;;;21.59
58102;BMP280;52034;51.926;6.320;2023-06-22T05:48:05;101766.84;;;21.53
58102;BMP280;52034;51.926;6.320;2023-06-22T05:49:05;101770.44;;;21.58
58102;BMP280;52034;51.926;6.320;2023-06-22T05:50:06;101763.28;;;21.55
58102;BMP280;52034;51.926;6.320;2023-06-22T05:51:08;101776.09;;;21.48
58102;BMP280;52034;51.926;6.320;2023-06-22T05:52:09;101771.81;;;21.49
58102;BMP280;52034;51.926;6.320;2023-06-22T05:53:09;101781.13;;;21.47
58102;BMP280;52034;51.926;6.320;2023-06-22T05:54:09;101781.81;;;21.48
58102;BMP280;52034;51.926;6.320;2023-06-22T05:55:10;101779.69;;;21.46
58102;BMP280;52034;51.926;6.320;2023-06-22T05:56:10;101773.31;;;21.54